createdAt,value
2023-03-23T15:59:11.791Z,1.83
2023-03-23T16:01:42.781Z,1.50
2023-03-23T16:04:18.111Z,1.25
2023-03-23T16:06:45.860Z,1.55
2023-03-23T16:09:19.753Z,1.20
2023-03-23T16:11:47.152Z,1.35
2023-03-23T16:14:14.804Z,1.30
2023-03-23T16:16:53.153Z,1.58
2023-03-23T16:19:24.530Z,1.40
2023-03-23T16:21:51.840Z,2.03
2023-03-23T16:24:19.344Z,1.40
2023-03-23T16:26:49.589Z,1.38
2023-03-23T16:29:37.049Z,1.70
2023-03-23T16:32:05.887Z,1.35
2023-03-23T16:34:34.500Z,1.35
2023-03-23T16:37:02.771Z,1.75
2023-03-23T16:39:30.117Z,2.10
2023-03-23T16:41:57.550Z,2.33
2023-03-23T16:44:24.830Z,2.33
2023-03-23T16:46:52.293Z,2.60
2023-03-23T16:49:19.170Z,2.42
2023-03-23T16:51:48.443Z,2.60
2023-03-23T16:54:16.027Z,2.50
2023-03-23T16:56:46.894Z,2.28
2023-03-23T16:59:15.160Z,2.83
2023-03-23T17:01:43.762Z,2.92
2023-03-23T17:04:11.130Z,3.40
2023-03-23T17:06:38.216Z,3.10
2023-03-23T17:09:06.518Z,2.83
2023-03-23T17:11:34.111Z,3.42
2023-03-23T17:14:02.326Z,4.10
2023-03-23T17:16:29.581Z,3.53
2023-03-23T17:18:56.793Z,3.67
2023-03-23T17:21:25.893Z,3.78
2023-03-23T17:23:53.824Z,4.32
2023-03-23T17:26:21.203Z,4.10
2023-03-23T17:28:48.283Z,4.45
2023-03-23T17:31:15.412Z,6.00
2023-03-23T17:33:42.574Z,5.43
2023-03-23T17:36:09.866Z,5.97
2023-03-23T17:38:36.948Z,5.85
2023-03-23T17:41:05.909Z,5.28
2023-03-23T17:43:33.828Z,5.05
2023-03-23T17:46:00.909Z,6.70
2023-03-23T17:48:27.899Z,6.03
2023-03-23T17:50:57.889Z,5.13
2023-03-23T17:53:30.469Z,5.63
2023-03-23T17:55:58.173Z,6.10
2023-03-23T17:58:28.117Z,5.80
2023-03-23T18:00:56.737Z,4.93
2023-03-23T18:03:25.462Z,5.38
2023-03-23T18:05:58.646Z,6.95
2023-03-23T18:08:28.796Z,5.32
2023-03-23T18:10:57.148Z,7.15
2023-03-23T18:13:28.878Z,6.28
2023-03-23T18:15:56.867Z,6.30
2023-03-23T18:18:24.952Z,6.05
2023-03-23T18:21:02.352Z,6.50
2023-03-23T18:23:32.073Z,6.85
2023-03-23T18:25:59.078Z,5.55
2023-03-23T18:28:27.588Z,7.00
2023-03-23T18:30:54.645Z,6.97
2023-03-23T18:33:24.353Z,6.40
2023-03-23T18:35:59.194Z,7.25
2023-03-23T18:38:28.184Z,7.18
2023-03-23T18:40:55.727Z,7.20
2023-03-23T18:43:22.980Z,6.38
2023-03-23T18:45:57.654Z,6.60
2023-03-23T18:48:25.136Z,6.20
2023-03-23T18:50:55.305Z,7.22
2023-03-23T18:53:23.268Z,6.03
2023-03-23T18:55:51.447Z,5.65
2023-03-23T18:58:20.763Z,6.65
2023-03-23T19:00:50.123Z,5.90
2023-03-23T19:03:17.252Z,5.47
2023-03-23T19:05:45.437Z,5.22
2023-03-23T19:08:12.808Z,5.20
2023-03-23T19:10:42.176Z,5.70
2023-03-23T19:13:11.326Z,4.50
2023-03-23T19:15:40.977Z,4.63
2023-03-23T19:18:09.426Z,4.90
2023-03-23T19:21:09.589Z,4.38
2023-03-23T19:23:23.507Z,4.13
2023-03-23T19:25:53.449Z,4.20
2023-03-23T19:29:05.436Z,3.60
2023-03-23T19:31:07.695Z,3.70
2023-03-23T19:33:34.593Z,4.13
2023-03-23T19:36:10.896Z,4.07
2023-03-23T19:38:40.832Z,2.95
2023-03-23T19:41:08.156Z,3.38
2023-03-23T19:43:37.577Z,3.28
2023-03-23T19:46:04.987Z,3.47
2023-03-23T19:48:32.893Z,3.75
2023-03-23T19:51:00.208Z,3.50
2023-03-23T19:53:27.606Z,2.88
2023-03-23T19:55:54.689Z,4.03
2023-03-23T19:58:21.930Z,3.13
2023-03-23T20:00:50.576Z,3.38
2023-03-23T20:03:18.219Z,3.45
2023-03-23T20:05:46.138Z,3.15
2023-03-23T20:08:15.344Z,3.47
2023-03-23T20:10:43.011Z,3.60
2023-03-23T20:13:11.905Z,3.80
2023-03-23T20:15:39.152Z,3.53
2023-03-23T20:18:07.329Z,3.55
2023-03-23T20:20:36.802Z,4.20
2023-03-23T20:23:04.873Z,3.33
2023-03-23T20:25:32.218Z,3.50
2023-03-23T20:28:01.858Z,3.67
2023-03-23T20:30:29.467Z,3.50
2023-03-23T20:33:02.065Z,3.30
2023-03-23T20:35:29.614Z,3.33
2023-03-23T20:37:57.324Z,3.85
2023-03-23T20:40:24.411Z,3.50
2023-03-23T20:42:54.681Z,3.13
2023-03-23T20:45:21.756Z,3.75
2023-03-23T20:47:48.806Z,3.20
2023-03-23T20:50:15.844Z,3.28
2023-03-23T20:52:43.105Z,3.97
2023-03-23T20:55:10.902Z,3.47
2023-03-23T20:57:40.331Z,3.42
2023-03-23T21:00:09.626Z,3.72
2023-03-23T21:02:37.278Z,3.28
2023-03-23T21:05:05.305Z,3.83
2023-03-23T21:07:32.400Z,4.10
2023-03-23T21:09:59.918Z,4.10
2023-03-23T21:12:27.595Z,3.92
2023-03-23T21:14:54.840Z,3.67
2023-03-23T21:17:22.023Z,3.67
2023-03-23T21:19:50.024Z,3.60
2023-03-23T21:22:18.733Z,4.22
2023-03-23T21:24:46.728Z,3.47
2023-03-23T21:27:13.815Z,3.47
2023-03-23T21:29:40.878Z,3.67
2023-03-23T21:32:08.978Z,3.38
2023-03-23T21:34:37.333Z,3.70
2023-03-23T21:37:04.825Z,3.95
2023-03-23T21:39:31.951Z,3.42
2023-03-23T21:41:59.760Z,3.58
2023-03-23T21:44:26.816Z,3.70
2023-03-23T21:46:54.786Z,3.45
2023-03-23T21:49:22.234Z,4.47
2023-03-23T21:51:50.727Z,3.53
2023-03-23T21:54:18.483Z,4.13
2023-03-23T21:56:45.589Z,4.60
2023-03-23T21:59:12.623Z,4.75
2023-03-23T22:01:40.779Z,3.72
2023-03-23T22:04:08.636Z,3.60
2023-03-23T22:06:35.891Z,3.92
2023-03-23T22:09:05.488Z,3.60
2023-03-23T22:11:33.233Z,4.78
2023-03-23T22:14:01.611Z,4.13
2023-03-23T22:16:29.309Z,3.75
2023-03-23T22:19:00.027Z,3.65
2023-03-23T22:21:29.231Z,3.67
2023-03-23T22:23:59.721Z,3.50
2023-03-23T22:26:28.604Z,3.85
2023-03-23T22:28:56.789Z,3.55
2023-03-23T22:31:28.329Z,3.75
2023-03-23T22:33:57.141Z,3.30
2023-03-23T22:36:26.602Z,3.45
2023-03-23T22:38:55.649Z,4.75
2023-03-23T22:41:26.864Z,4.25
2023-03-23T22:43:54.423Z,3.42
2023-03-23T22:46:21.970Z,3.55
2023-03-23T22:48:49.269Z,3.67
2023-03-23T22:51:18.353Z,3.28
2023-03-23T22:53:46.082Z,3.80
2023-03-23T22:56:13.801Z,3.53
2023-03-23T22:58:41.110Z,3.83
2023-03-23T23:01:21.552Z,3.63
2023-03-23T23:03:49.261Z,3.85
2023-03-23T23:06:18.673Z,4.15
2023-03-23T23:08:47.123Z,3.50
2023-03-23T23:11:16.725Z,3.55
2023-03-23T23:13:44.419Z,3.78
2023-03-23T23:16:14.130Z,4.10
2023-03-23T23:18:41.803Z,4.05
2023-03-23T23:21:14.115Z,3.97
2023-03-23T23:23:41.819Z,3.55
2023-03-23T23:26:09.849Z,3.03
2023-03-23T23:28:36.983Z,3.42
2023-03-23T23:31:06.405Z,3.78
2023-03-23T23:33:33.603Z,3.35
2023-03-23T23:36:00.895Z,3.70
2023-03-23T23:38:28.410Z,3.63
2023-03-23T23:40:55.497Z,3.47
2023-03-23T23:43:23.090Z,3.53
2023-03-23T23:45:50.913Z,3.42
2023-03-23T23:48:18.733Z,3.63
2023-03-23T23:50:45.914Z,4.07
2023-03-23T23:53:13.047Z,3.88
2023-03-23T23:55:40.643Z,3.53
2023-03-23T23:58:08.309Z,4.18
